createdAt,value
2022-12-06T00:01:39.110Z,3.70
2022-12-06T00:04:11.589Z,3.60
2022-12-06T00:06:48.346Z,3.40
2022-12-06T00:09:22.809Z,3.30
2022-12-06T00:11:50.647Z,3.30
2022-12-06T00:14:18.468Z,3.20
2022-12-06T00:16:45.814Z,3.30
2022-12-06T00:19:16.647Z,3.30
2022-12-06T00:21:44.745Z,3.30
2022-12-06T00:24:16.462Z,3.30
2022-12-06T00:26:46.277Z,3.20
2022-12-06T00:29:22.819Z,3.10
2022-12-06T00:36:45.132Z,3.10
2022-12-06T00:39:15.852Z,3.20
2022-12-06T00:41:43.501Z,3.20
2022-12-06T00:44:11.195Z,3.30
2022-12-06T00:46:38.696Z,3.30
2022-12-06T00:49:07.557Z,3.30
2022-12-06T00:51:36.663Z,3.30
2022-12-06T00:54:04.497Z,3.20
2022-12-06T00:56:32.655Z,3.40
2022-12-06T01:01:31.166Z,3.50
2022-12-06T01:04:02.474Z,3.50
2022-12-06T01:06:32.765Z,3.40
2022-12-06T01:09:07.739Z,3.40
2022-12-06T01:11:35.191Z,3.50
2022-12-06T01:14:02.674Z,3.40
2022-12-06T01:16:31.575Z,3.30
2022-12-06T01:21:29.366Z,3.20
2022-12-06T01:26:31.272Z,3.20
2022-12-06T01:28:59.477Z,3.10
2022-12-06T01:31:33.614Z,3.00
2022-12-06T01:34:02.726Z,3.00
2022-12-06T01:36:29.877Z,3.00
2022-12-06T01:38:58.849Z,3.00
2022-12-06T01:41:28.087Z,3.10
2022-12-06T01:43:56.339Z,3.10
2022-12-06T01:46:42.919Z,3.00
2022-12-06T01:49:13.001Z,3.00
2022-12-06T01:51:49.917Z,3.00
2022-12-06T01:54:18.815Z,3.00
2022-12-06T01:56:47.115Z,3.00
2022-12-06T01:59:15.109Z,3.10
2022-12-06T02:01:42.350Z,3.10
2022-12-06T02:04:09.812Z,3.00
2022-12-06T02:06:39.749Z,3.00
2022-12-06T02:09:09.650Z,3.10
2022-12-06T02:11:37.250Z,3.20
2022-12-06T02:14:11.136Z,3.20
2022-12-06T02:16:59.805Z,3.20
2022-12-06T02:19:59.604Z,3.20
2022-12-06T02:22:56.544Z,3.30
2022-12-06T02:25:44.444Z,3.30
2022-12-06T02:28:53.506Z,3.30
2022-12-06T02:31:35.340Z,3.40
2022-12-06T02:34:26.137Z,3.50
2022-12-06T02:37:03.820Z,3.50
2022-12-06T02:39:58.421Z,3.40
2022-12-06T02:42:34.262Z,3.40
2022-12-06T02:45:11.513Z,3.40
2022-12-06T02:47:39.453Z,3.40
2022-12-06T02:50:16.676Z,3.30
2022-12-06T02:52:48.968Z,3.40
2022-12-06T02:55:17.929Z,3.40
2022-12-06T02:57:49.650Z,3.50
2022-12-06T03:00:46.315Z,3.60
2022-12-06T03:03:54.824Z,3.70
2022-12-06T03:07:05.248Z,3.80
2022-12-06T03:09:37.317Z,3.80
2022-12-06T03:12:35.513Z,3.80
2022-12-06T03:15:23.807Z,3.90
2022-12-06T03:17:59.053Z,3.90
2022-12-06T03:20:57.801Z,3.90
2022-12-06T03:23:33.059Z,3.90
2022-12-06T03:26:02.233Z,4.00
2022-12-06T03:28:31.010Z,4.00
2022-12-06T03:31:06.278Z,4.00
2022-12-06T03:33:35.490Z,4.10
2022-12-06T03:36:03.180Z,4.10
2022-12-06T03:38:37.107Z,4.10
2022-12-06T03:41:06.788Z,4.10
2022-12-06T03:43:34.503Z,4.10
2022-12-06T03:46:30.603Z,4.10
2022-12-06T03:49:27.214Z,4.10
2022-12-06T03:51:54.607Z,3.90
2022-12-06T03:54:21.794Z,3.90
2022-12-06T03:56:48.774Z,4.00
2022-12-06T03:59:15.704Z,4.00
2022-12-06T04:01:42.657Z,4.10
2022-12-06T04:04:10.906Z,4.20
2022-12-06T04:06:38.043Z,4.20
2022-12-06T04:09:23.707Z,4.20
2022-12-06T04:11:50.671Z,4.30
2022-12-06T04:14:17.694Z,4.20
2022-12-06T04:17:03.137Z,4.20
2022-12-06T04:19:30.205Z,4.10
2022-12-06T04:22:15.689Z,3.90
2022-12-06T04:24:42.629Z,3.90
2022-12-06T04:27:28.157Z,3.80
2022-12-06T04:30:13.316Z,3.70
2022-12-06T04:32:59.068Z,3.60
2022-12-06T04:35:44.439Z,3.70
2022-12-06T04:40:57.479Z,3.80
2022-12-06T04:43:42.345Z,3.90
2022-12-06T04:46:11.450Z,4.00
2022-12-06T04:48:39.776Z,4.00
2022-12-06T04:51:07.232Z,4.10
2022-12-06T04:53:34.384Z,4.10
2022-12-06T04:56:01.684Z,4.20
2022-12-06T04:58:28.681Z,4.30
2022-12-06T05:00:56.039Z,4.20
2022-12-06T05:03:23.136Z,4.30
2022-12-06T05:05:50.442Z,4.30
2022-12-06T05:08:17.472Z,4.40
2022-12-06T05:10:48.788Z,4.30
2022-12-06T05:13:17.556Z,4.40
2022-12-06T05:15:57.757Z,4.40
2022-12-06T05:18:26.029Z,4.40
2022-12-06T05:21:04.184Z,4.40
2022-12-06T05:23:32.083Z,4.40
2022-12-06T05:26:01.613Z,4.50
2022-12-06T05:28:29.933Z,4.40
2022-12-06T05:30:57.599Z,4.40
2022-12-06T05:33:25.394Z,4.40
2022-12-06T05:35:52.399Z,4.40
2022-12-06T05:38:20.219Z,4.50
2022-12-06T05:40:47.864Z,4.40
2022-12-06T05:43:15.341Z,4.50
2022-12-06T05:45:43.483Z,4.40
2022-12-06T05:48:10.715Z,4.40
2022-12-06T05:50:37.644Z,4.40
2022-12-06T05:53:04.667Z,4.40
2022-12-06T05:55:31.681Z,4.40
2022-12-06T05:57:58.634Z,4.30
2022-12-06T06:00:25.765Z,4.20
2022-12-06T06:02:53.129Z,4.20
2022-12-06T06:05:20.312Z,4.10
2022-12-06T06:07:47.604Z,4.20
2022-12-06T06:10:15.868Z,4.10
2022-12-06T06:12:44.734Z,4.10
2022-12-06T06:15:13.498Z,4.20
2022-12-06T06:17:40.856Z,4.20
2022-12-06T06:20:11.516Z,4.20
2022-12-06T06:22:40.188Z,4.30
2022-12-06T06:25:07.847Z,4.40
2022-12-06T06:27:37.693Z,4.40
2022-12-06T06:30:08.466Z,4.50
2022-12-06T06:32:36.459Z,4.50
2022-12-06T06:35:05.061Z,4.40
2022-12-06T06:37:33.034Z,4.40
2022-12-06T06:40:01.058Z,4.40
2022-12-06T06:42:28.239Z,4.30
2022-12-06T06:44:55.462Z,4.20
2022-12-06T06:47:23.464Z,4.20
2022-12-06T06:49:50.515Z,4.10
2022-12-06T06:52:17.563Z,4.00
2022-12-06T06:54:44.494Z,4.00
2022-12-06T06:57:17.137Z,3.90
2022-12-06T06:59:45.646Z,3.90
2022-12-06T07:02:14.862Z,4.00
2022-12-06T07:04:42.375Z,3.90
2022-12-06T07:07:09.500Z,4.00
2022-12-06T07:09:36.745Z,4.10
2022-12-06T07:12:04.474Z,4.30
2022-12-06T07:14:31.745Z,4.40
2022-12-06T07:17:00.746Z,4.40
2022-12-06T07:19:27.784Z,4.40
2022-12-06T07:21:54.771Z,4.40
2022-12-06T07:24:21.809Z,4.50
2022-12-06T07:26:48.762Z,4.50
2022-12-06T07:29:15.820Z,4.40
2022-12-06T07:31:42.820Z,4.40
2022-12-06T07:34:10.233Z,4.40
2022-12-06T07:36:37.321Z,4.40
2022-12-06T07:39:04.378Z,4.40
2022-12-06T07:41:49.765Z,4.50
2022-12-06T07:44:58.306Z,4.50
2022-12-06T07:47:41.450Z,4.50
2022-12-06T07:50:26.272Z,4.60
2022-12-06T07:52:53.447Z,4.50
2022-12-06T07:55:20.460Z,4.60
2022-12-06T07:57:47.412Z,4.70
2022-12-06T08:00:16.308Z,4.70
2022-12-06T08:02:43.810Z,4.60
2022-12-06T08:05:11.489Z,4.60
2022-12-06T08:07:39.307Z,4.60
2022-12-06T08:10:07.383Z,4.60
2022-12-06T08:12:34.384Z,4.50
2022-12-06T08:15:01.317Z,4.40
2022-12-06T08:17:30.133Z,4.40
2022-12-06T08:19:57.289Z,4.40
2022-12-06T08:22:24.345Z,4.50
2022-12-06T08:24:51.374Z,4.60
2022-12-06T08:27:18.312Z,4.70
2022-12-06T08:29:45.531Z,4.80
2022-12-06T08:32:12.563Z,5.10
2022-12-06T08:34:39.545Z,5.10
2022-12-06T08:37:06.501Z,5.20
2022-12-06T08:39:33.447Z,5.30
2022-12-06T08:42:02.941Z,5.30
2022-12-06T08:44:32.244Z,5.30
2022-12-06T08:47:01.944Z,5.30
2022-12-06T08:49:30.171Z,5.30
2022-12-06T08:51:58.716Z,5.20
2022-12-06T08:54:26.115Z,5.20
2022-12-06T08:56:53.630Z,5.10
2022-12-06T08:59:20.867Z,5.00
2022-12-06T09:01:48.168Z,4.80
2022-12-06T09:04:15.647Z,4.70
2022-12-06T09:06:44.703Z,4.40
2022-12-06T09:09:14.427Z,4.40
2022-12-06T09:11:42.030Z,4.30
2022-12-06T09:14:21.168Z,4.30
2022-12-06T09:16:49.926Z,4.20
2022-12-06T09:19:17.072Z,4.00
2022-12-06T09:21:44.612Z,4.10
2022-12-06T09:24:17.542Z,4.00
2022-12-06T09:26:44.514Z,4.10
2022-12-06T09:29:12.408Z,4.20
2022-12-06T09:31:40.442Z,4.20
2022-12-06T09:34:10.042Z,4.30
2022-12-06T09:36:59.172Z,4.20
2022-12-06T09:39:34.485Z,4.30
2022-12-06T09:42:01.352Z,4.30
2022-12-06T09:45:01.893Z,4.40
2022-12-06T09:48:16.855Z,4.40
2022-12-06T09:51:32.157Z,4.30
2022-12-06T09:54:18.838Z,4.30
2022-12-06T09:56:58.279Z,4.70
2022-12-06T09:59:51.440Z,4.40
2022-12-06T10:02:33.754Z,4.50
2022-12-06T10:05:22.298Z,4.50
2022-12-06T10:08:24.991Z,4.60
2022-12-06T10:11:08.520Z,4.70
2022-12-06T10:13:54.267Z,4.70
2022-12-06T10:17:09.633Z,4.70
2022-12-06T10:20:33.290Z,4.80
2022-12-06T10:23:11.177Z,4.70
2022-12-06T10:25:44.316Z,4.70
2022-12-06T10:28:26.588Z,4.80
2022-12-06T10:31:04.800Z,4.90
2022-12-06T10:33:39.666Z,4.90
2022-12-06T10:36:11.609Z,4.90
2022-12-06T10:39:10.554Z,4.90
2022-12-06T10:42:03.680Z,4.80
2022-12-06T10:44:40.920Z,4.80
2022-12-06T10:47:24.903Z,4.70
2022-12-06T10:50:20.915Z,4.70
2022-12-06T10:53:26.747Z,4.70
2022-12-06T10:56:20.446Z,4.60
2022-12-06T10:59:36.510Z,4.60
2022-12-06T11:02:26.077Z,4.60
2022-12-06T11:04:58.343Z,4.60
2022-12-06T11:07:41.302Z,4.70
2022-12-06T11:10:31.739Z,4.70
2022-12-06T11:13:40.563Z,4.70
2022-12-06T11:16:22.505Z,4.70
2022-12-06T11:18:50.220Z,4.60
2022-12-06T11:21:53.332Z,5.00
2022-12-06T11:24:47.750Z,4.70
2022-12-06T11:27:26.819Z,4.70
2022-12-06T11:29:53.831Z,4.30
2022-12-06T11:34:52.791Z,4.90
2022-12-06T11:37:23.722Z,5.00
2022-12-06T11:39:56.587Z,4.90
2022-12-06T11:42:27.840Z,4.90
2022-12-06T11:45:04.315Z,4.90
2022-12-06T11:47:31.406Z,4.80
2022-12-06T11:50:04.271Z,4.80
2022-12-06T11:52:50.911Z,4.90
2022-12-06T11:55:23.624Z,4.90
2022-12-06T11:58:01.742Z,4.80
2022-12-06T12:00:31.159Z,4.80
2022-12-06T12:02:58.817Z,4.80
2022-12-06T12:05:31.139Z,4.70
2022-12-06T12:08:19.627Z,4.80
2022-12-06T12:10:58.581Z,4.70
2022-12-06T12:13:46.513Z,4.60
2022-12-06T12:16:28.991Z,4.70
2022-12-06T12:19:03.108Z,4.70
2022-12-06T12:21:36.500Z,4.80
2022-12-06T12:24:05.396Z,4.70
2022-12-06T12:26:39.781Z,4.80
2022-12-06T12:29:16.529Z,4.70
2022-12-06T12:32:11.471Z,4.70
2022-12-06T12:34:42.920Z,4.60
2022-12-06T12:37:21.023Z,4.50
2022-12-06T12:39:54.842Z,4.60
2022-12-06T12:42:34.788Z,4.60
2022-12-06T12:45:05.632Z,4.60
2022-12-06T12:47:32.961Z,4.60
2022-12-06T12:50:18.192Z,4.60
2022-12-06T12:52:45.573Z,4.50
2022-12-06T12:55:23.280Z,4.50
2022-12-06T12:58:00.333Z,4.50
2022-12-06T13:03:34.758Z,4.60
2022-12-06T13:06:00.478Z,4.70
2022-12-06T13:08:36.117Z,4.60
2022-12-06T13:11:05.445Z,4.60
2022-12-06T13:13:44.805Z,4.60
2022-12-06T13:16:26.025Z,4.60
2022-12-06T13:18:56.395Z,4.60
2022-12-06T13:21:36.726Z,4.50
2022-12-06T13:24:24.279Z,4.60
2022-12-06T13:27:03.842Z,4.50
2022-12-06T13:29:37.146Z,4.50
2022-12-06T13:32:14.271Z,4.60
2022-12-06T13:34:52.340Z,4.60
2022-12-06T13:37:36.572Z,5.00
2022-12-06T13:40:05.899Z,4.60
2022-12-06T13:45:43.670Z,4.40
2022-12-06T13:48:25.651Z,4.50
2022-12-06T13:51:35.389Z,4.50
2022-12-06T13:54:05.429Z,4.50
2022-12-06T13:56:35.494Z,4.20
2022-12-06T13:59:12.665Z,4.40
2022-12-06T14:02:01.191Z,4.50
2022-12-06T14:09:46.953Z,4.50
2022-12-06T14:12:24.716Z,4.40
2022-12-06T14:15:04.497Z,4.40
2022-12-06T14:20:31.507Z,4.40
2022-12-06T14:22:58.462Z,4.40
2022-12-06T14:25:29.640Z,4.40
2022-12-06T14:28:10.385Z,4.50
2022-12-06T14:30:37.517Z,4.60
2022-12-06T14:33:19.559Z,4.50
2022-12-06T14:35:53.892Z,4.60
2022-12-06T14:38:28.168Z,4.50
2022-12-06T14:41:14.540Z,4.50
2022-12-06T14:43:46.595Z,4.50
2022-12-06T14:46:16.497Z,4.50
2022-12-06T14:49:03.244Z,4.40
2022-12-06T14:51:40.994Z,4.40
2022-12-06T14:54:19.396Z,4.40
2022-12-06T14:56:46.477Z,4.40
2022-12-06T14:59:13.432Z,4.30
2022-12-06T15:01:49.868Z,4.40
2022-12-06T15:04:35.292Z,4.40
2022-12-06T15:07:02.524Z,4.40
2022-12-06T15:09:31.591Z,4.40
2022-12-06T15:12:46.461Z,4.40
2022-12-06T15:15:36.421Z,4.40
2022-12-06T15:18:22.660Z,4.40
2022-12-06T15:20:50.465Z,4.30
2022-12-06T15:23:41.509Z,4.40
2022-12-06T15:26:11.968Z,4.40
2022-12-06T15:28:39.720Z,4.40
2022-12-06T15:31:21.355Z,4.40
2022-12-06T15:33:49.370Z,4.50
2022-12-06T15:36:26.584Z,4.40
2022-12-06T15:38:53.796Z,4.50
2022-12-06T15:41:27.376Z,4.50
2022-12-06T15:46:28.051Z,4.60
2022-12-06T15:53:55.933Z,4.50
2022-12-06T15:56:27.248Z,4.60
2022-12-06T16:01:33.631Z,4.50
2022-12-06T16:06:29.413Z,4.50
2022-12-06T16:08:56.617Z,4.60
2022-12-06T16:13:53.583Z,4.50
2022-12-06T16:39:23.540Z,4.50
2022-12-06T16:41:50.502Z,4.60
2022-12-06T16:44:17.468Z,4.50
2022-12-06T16:46:45.722Z,4.50
2022-12-06T19:19:25.568Z,4.50
2022-12-06T20:14:29.762Z,4.40
2022-12-06T20:16:56.770Z,4.50
2022-12-06T20:19:24.306Z,4.50
2022-12-06T20:21:51.648Z,4.50
2022-12-06T20:24:21.851Z,4.50
2022-12-06T20:26:51.676Z,4.50
2022-12-06T20:29:19.916Z,4.50
2022-12-06T20:36:44.592Z,4.50
2022-12-06T20:39:20.918Z,4.60
2022-12-06T20:41:49.272Z,4.60
2022-12-06T20:44:17.527Z,4.60
